sensor_id;sensor_type;location;lat;lon;timestamp;temperature;humidity
47757;SHT35;22147;52.388;13.390;2023-07-31T00:01:01;15.30;87.13
47757;SHT35;22147;52.388;13.390;2023-07-31T00:03:31;15.29;87.06
47757;SHT35;22147;52.388;13.390;2023-07-31T00:06:01;15.27;87.04
47757;SHT35;22147;52.388;13.390;2023-07-31T00:08:31;15.23;86.98
47757;SHT35;22147;52.388;13.390;2023-07-31T00:11:01;15.16;86.91
47757;SHT35;22147;52.388;13.390;2023-07-31T00:13:29;15.19;86.95
47757;SHT35;22147;52.388;13.390;2023-07-31T00:15:59;15.18;86.84
47757;SHT35;22147;52.388;13.390;2023-07-31T00:18:26;15.15;86.88
47757;SHT35;22147;52.388;13.390;2023-07-31T00:20:55;15.15;86.95
47757;SHT35;22147;52.388;13.390;2023-07-31T00:23:23;15.15;86.87
47757;SHT35;22147;52.388;13.390;2023-07-31T00:25:53;15.13;86.92
47757;SHT35;22147;52.388;13.390;2023-07-31T00:28:23;15.12;86.95
47757;SHT35;22147;52.388;13.390;2023-07-31T00:30:53;15.13;86.90
47757;SHT35;22147;52.388;13.390;2023-07-31T00:33:22;15.16;86.90
47757;SHT35;22147;52.388;13.390;2023-07-31T00:35:51;15.15;86.81
47757;SHT35;22147;52.388;13.390;2023-07-31T00:38:19;15.19;86.84
47757;SHT35;22147;52.388;13.390;2023-07-31T00:40:50;15.18;86.75
47757;SHT35;22147;52.388;13.390;2023-07-31T00:43:18;15.20;86.53
47757;SHT35;22147;52.388;13.390;2023-07-31T00:45:48;15.19;86.69
47757;SHT35;22147;52.388;13.390;2023-07-31T00:48:18;15.20;86.50
47757;SHT35;22147;52.388;13.390;2023-07-31T00:50:48;15.20;86.26
47757;SHT35;22147;52.388;13.390;2023-07-31T00:53:18;15.22;86.29
47757;SHT35;22147;52.388;13.390;2023-07-31T00:55:47;15.25;86.29
47757;SHT35;22147;52.388;13.390;2023-07-31T00:58:16;15.30;86.48
47757;SHT35;22147;52.388;13.390;2023-07-31T01:00:46;15.23;86.58
47757;SHT35;22147;52.388;13.390;2023-07-31T01:03:18;15.23;87.10
47757;SHT35;22147;52.388;13.390;2023-07-31T01:09:14;15.13;88.03
47757;SHT35;22147;52.388;13.390;2023-07-31T01:11:57;15.12;88.30
47757;SHT35;22147;52.388;13.390;2023-07-31T01:14:30;15.09;88.54
47757;SHT35;22147;52.388;13.390;2023-07-31T01:16:58;15.09;88.86
47757;SHT35;22147;52.388;13.390;2023-07-31T01:19:28;15.07;88.87
47757;SHT35;22147;52.388;13.390;2023-07-31T01:22:47;15.06;88.81
47757;SHT35;22147;52.388;13.390;2023-07-31T01:26:11;15.07;88.98
47757;SHT35;22147;52.388;13.390;2023-07-31T01:29:20;15.10;89.13
47757;SHT35;22147;52.388;13.390;2023-07-31T01:31:56;15.18;89.10
47757;SHT35;22147;52.388;13.390;2023-07-31T01:34:31;15.18;89.23
47757;SHT35;22147;52.388;13.390;2023-07-31T01:37:03;15.20;89.27
47757;SHT35;22147;52.388;13.390;2023-07-31T01:39:33;15.23;89.25
47757;SHT35;22147;52.388;13.390;2023-07-31T01:42:04;15.22;89.30
47757;SHT35;22147;52.388;13.390;2023-07-31T01:44:34;15.25;89.32
47757;SHT35;22147;52.388;13.390;2023-07-31T01:47:05;15.23;89.30
47757;SHT35;22147;52.388;13.390;2023-07-31T01:49:35;15.26;89.33
47757;SHT35;22147;52.388;13.390;2023-07-31T01:52:06;15.29;89.21
47757;SHT35;22147;52.388;13.390;2023-07-31T01:54:37;15.29;89.24
47757;SHT35;22147;52.388;13.390;2023-07-31T01:57:07;15.32;89.27
47757;SHT35;22147;52.388;13.390;2023-07-31T01:59:37;15.36;89.28
47757;SHT35;22147;52.388;13.390;2023-07-31T02:02:08;15.36;89.35
47757;SHT35;22147;52.388;13.390;2023-07-31T02:04:38;15.40;89.38
47757;SHT35;22147;52.388;13.390;2023-07-31T02:07:10;15.42;89.29
47757;SHT35;22147;52.388;13.390;2023-07-31T02:09:40;15.36;89.31
47757;SHT35;22147;52.388;13.390;2023-07-31T02:12:10;15.34;89.30
47757;SHT35;22147;52.388;13.390;2023-07-31T02:14:41;15.37;89.25
47757;SHT35;22147;52.388;13.390;2023-07-31T02:17:12;15.40;89.26
47757;SHT35;22147;52.388;13.390;2023-07-31T02:19:42;15.40;89.25
47757;SHT35;22147;52.388;13.390;2023-07-31T02:22:13;15.37;89.20
47757;SHT35;22147;52.388;13.390;2023-07-31T02:24:43;15.33;89.09
47757;SHT35;22147;52.388;13.390;2023-07-31T02:27:13;15.36;89.19
47757;SHT35;22147;52.388;13.390;2023-07-31T02:29:43;15.40;89.22
47757;SHT35;22147;52.388;13.390;2023-07-31T02:32:14;15.42;89.25
47757;SHT35;22147;52.388;13.390;2023-07-31T02:34:44;15.40;89.15
47757;SHT35;22147;52.388;13.390;2023-07-31T02:37:15;15.40;89.18
47757;SHT35;22147;52.388;13.390;2023-07-31T02:39:45;15.42;89.28
47757;SHT35;22147;52.388;13.390;2023-07-31T02:42:15;15.40;89.23
47757;SHT35;22147;52.388;13.390;2023-07-31T02:44:45;15.42;89.17
47757;SHT35;22147;52.388;13.390;2023-07-31T02:47:15;15.34;89.27
47757;SHT35;22147;52.388;13.390;2023-07-31T02:49:45;15.36;89.10
47757;SHT35;22147;52.388;13.390;2023-07-31T02:52:16;15.26;89.19
47757;SHT35;22147;52.388;13.390;2023-07-31T02:54:46;15.23;89.38
47757;SHT35;22147;52.388;13.390;2023-07-31T02:57:16;15.22;89.57
47757;SHT35;22147;52.388;13.390;2023-07-31T02:59:47;15.19;89.67
47757;SHT35;22147;52.388;13.390;2023-07-31T03:02:17;15.13;89.73
47757;SHT35;22147;52.388;13.390;2023-07-31T03:04:47;15.09;90.00
47757;SHT35;22147;52.388;13.390;2023-07-31T03:07:17;15.10;90.29
47757;SHT35;22147;52.388;13.390;2023-07-31T03:09:48;15.10;90.40
47757;SHT35;22147;52.388;13.390;2023-07-31T03:12:18;15.13;90.45
47757;SHT35;22147;52.388;13.390;2023-07-31T03:14:49;15.13;90.55
47757;SHT35;22147;52.388;13.390;2023-07-31T03:17:19;15.15;90.63
47757;SHT35;22147;52.388;13.390;2023-07-31T03:19:50;15.15;90.60
47757;SHT35;22147;52.388;13.390;2023-07-31T03:22:20;15.10;90.48
47757;SHT35;22147;52.388;13.390;2023-07-31T03:24:50;15.12;90.62
47757;SHT35;22147;52.388;13.390;2023-07-31T03:27:20;15.09;90.66
47757;SHT35;22147;52.388;13.390;2023-07-31T03:29:50;15.06;90.71
47757;SHT35;22147;52.388;13.390;2023-07-31T03:32:21;15.09;90.79
47757;SHT35;22147;52.388;13.390;2023-07-31T03:34:52;15.05;90.71
47757;SHT35;22147;52.388;13.390;2023-07-31T03:37:22;15.03;90.84
47757;SHT35;22147;52.388;13.390;2023-07-31T03:39:52;15.07;90.91
47757;SHT35;22147;52.388;13.390;2023-07-31T03:42:23;15.07;90.93
47757;SHT35;22147;52.388;13.390;2023-07-31T03:44:53;15.06;90.85
47757;SHT35;22147;52.388;13.390;2023-07-31T03:47:23;15.05;90.83
47757;SHT35;22147;52.388;13.390;2023-07-31T03:49:53;15.09;90.91
47757;SHT35;22147;52.388;13.390;2023-07-31T03:52:24;15.02;90.74
47757;SHT35;22147;52.388;13.390;2023-07-31T03:54:55;15.05;90.91
47757;SHT35;22147;52.388;13.390;2023-07-31T03:57:25;15.06;91.08
47757;SHT35;22147;52.388;13.390;2023-07-31T03:59:55;15.06;91.10
47757;SHT35;22147;52.388;13.390;2023-07-31T04:02:26;15.02;91.07
47757;SHT35;22147;52.388;13.390;2023-07-31T04:04:56;15.00;91.10
47757;SHT35;22147;52.388;13.390;2023-07-31T04:07:26;15.06;91.14
47757;SHT35;22147;52.388;13.390;2023-07-31T04:09:57;15.05;91.18
47757;SHT35;22147;52.388;13.390;2023-07-31T04:12:28;15.07;91.18
47757;SHT35;22147;52.388;13.390;2023-07-31T04:14:58;15.13;91.21
47757;SHT35;22147;52.388;13.390;2023-07-31T04:17:28;15.07;91.05
47757;SHT35;22147;52.388;13.390;2023-07-31T04:19:58;15.15;91.09
47757;SHT35;22147;52.388;13.390;2023-07-31T04:22:29;15.20;91.16
47757;SHT35;22147;52.388;13.390;2023-07-31T04:24:57;15.19;90.83
47757;SHT35;22147;52.388;13.390;2023-07-31T04:27:27;15.25;90.88
47757;SHT35;22147;52.388;13.390;2023-07-31T04:29:56;15.26;90.77
47757;SHT35;22147;52.388;13.390;2023-07-31T04:32:24;15.25;90.68
47757;SHT35;22147;52.388;13.390;2023-07-31T04:34:53;15.33;90.82
47757;SHT35;22147;52.388;13.390;2023-07-31T04:37:21;15.32;90.69
47757;SHT35;22147;52.388;13.390;2023-07-31T04:39:50;15.27;90.66
47757;SHT35;22147;52.388;13.390;2023-07-31T04:42:18;15.30;90.64
47757;SHT35;22147;52.388;13.390;2023-07-31T04:44:46;15.30;90.67
47757;SHT35;22147;52.388;13.390;2023-07-31T04:47:15;15.30;90.50
47757;SHT35;22147;52.388;13.390;2023-07-31T04:49:43;15.30;90.52
47757;SHT35;22147;52.388;13.390;2023-07-31T04:52:12;15.32;90.72
47757;SHT35;22147;52.388;13.390;2023-07-31T04:54:40;15.34;90.77
47757;SHT35;22147;52.388;13.390;2023-07-31T04:57:09;15.36;90.65
47757;SHT35;22147;52.388;13.390;2023-07-31T04:59:37;15.36;90.65
47757;SHT35;22147;52.388;13.390;2023-07-31T05:02:08;15.32;90.24
47757;SHT35;22147;52.388;13.390;2023-07-31T05:04:37;15.47;90.37
47757;SHT35;22147;52.388;13.390;2023-07-31T05:07:05;15.58;90.46
47757;SHT35;22147;52.388;13.390;2023-07-31T05:09:34;15.71;90.46
47757;SHT35;22147;52.388;13.390;2023-07-31T05:12:05;15.65;89.83
47757;SHT35;22147;52.388;13.390;2023-07-31T05:14:35;15.64;89.84
47757;SHT35;22147;52.388;13.390;2023-07-31T05:17:06;15.75;89.88
47757;SHT35;22147;52.388;13.390;2023-07-31T05:19:36;15.81;89.76
47757;SHT35;22147;52.388;13.390;2023-07-31T05:22:06;15.82;89.59
47757;SHT35;22147;52.388;13.390;2023-07-31T05:24:36;15.74;89.50
47757;SHT35;22147;52.388;13.390;2023-07-31T05:27:06;15.70;89.60
47757;SHT35;22147;52.388;13.390;2023-07-31T05:29:37;15.68;89.42
47757;SHT35;22147;52.388;13.390;2023-07-31T05:32:07;15.68;89.73
47757;SHT35;22147;52.388;13.390;2023-07-31T05:34:37;15.71;89.56
47757;SHT35;22147;52.388;13.390;2023-07-31T05:37:10;15.67;89.55
47757;SHT35;22147;52.388;13.390;2023-07-31T05:39:42;15.73;89.51
47757;SHT35;22147;52.388;13.390;2023-07-31T05:42:12;15.74;89.53
47757;SHT35;22147;52.388;13.390;2023-07-31T05:44:43;15.79;89.52
47757;SHT35;22147;52.388;13.390;2023-07-31T05:47:13;15.74;89.37
47757;SHT35;22147;52.388;13.390;2023-07-31T05:49:44;15.77;89.45
47757;SHT35;22147;52.388;13.390;2023-07-31T05:52:15;15.84;89.57
47757;SHT35;22147;52.388;13.390;2023-07-31T05:54:45;15.88;89.55
47757;SHT35;22147;52.388;13.390;2023-07-31T05:57:16;15.97;89.36
47757;SHT35;22147;52.388;13.390;2023-07-31T05:59:46;15.92;89.23
47757;SHT35;22147;52.388;13.390;2023-07-31T06:02:16;15.94;89.17
47757;SHT35;22147;52.388;13.390;2023-07-31T06:04:46;15.98;89.37
47757;SHT35;22147;52.388;13.390;2023-07-31T06:07:17;16.09;89.53
47757;SHT35;22147;52.388;13.390;2023-07-31T06:09:47;16.23;89.34
47757;SHT35;22147;52.388;13.390;2023-07-31T06:12:17;16.25;89.08
47757;SHT35;22147;52.388;13.390;2023-07-31T06:14:48;16.36;89.19
47757;SHT35;22147;52.388;13.390;2023-07-31T06:17:19;16.34;88.87
47757;SHT35;22147;52.388;13.390;2023-07-31T06:19:50;16.42;88.61
47757;SHT35;22147;52.388;13.390;2023-07-31T06:22:20;16.44;88.60
47757;SHT35;22147;52.388;13.390;2023-07-31T06:24:51;16.51;88.72
47757;SHT35;22147;52.388;13.390;2023-07-31T06:27:21;16.59;88.16
47757;SHT35;22147;52.388;13.390;2023-07-31T06:29:51;16.61;88.19
47757;SHT35;22147;52.388;13.390;2023-07-31T06:32:22;16.46;88.11
47757;SHT35;22147;52.388;13.390;2023-07-31T06:34:52;16.39;88.34
47757;SHT35;22147;52.388;13.390;2023-07-31T06:37:24;16.49;88.37
47757;SHT35;22147;52.388;13.390;2023-07-31T06:39:54;16.47;88.48
47757;SHT35;22147;52.388;13.390;2023-07-31T06:42:24;16.50;88.60
47757;SHT35;22147;52.388;13.390;2023-07-31T06:44:54;16.55;88.47
47757;SHT35;22147;52.388;13.390;2023-07-31T06:47:24;16.44;88.10
47757;SHT35;22147;52.388;13.390;2023-07-31T06:49:56;16.50;88.43
47757;SHT35;22147;52.388;13.390;2023-07-31T06:52:26;16.60;88.41
47757;SHT35;22147;52.388;13.390;2023-07-31T06:55:20;16.49;88.12
47757;SHT35;22147;52.388;13.390;2023-07-31T06:57:55;16.44;88.30
47757;SHT35;22147;52.388;13.390;2023-07-31T07:00:23;16.44;88.42
47757;SHT35;22147;52.388;13.390;2023-07-31T07:02:53;16.55;88.78
47757;SHT35;22147;52.388;13.390;2023-07-31T07:05:23;16.55;88.61
47757;SHT35;22147;52.388;13.390;2023-07-31T07:07:53;16.39;88.58
47757;SHT35;22147;52.388;13.390;2023-07-31T07:10:23;16.47;89.13
47757;SHT35;22147;52.388;13.390;2023-07-31T07:12:54;16.43;89.30
47757;SHT35;22147;52.388;13.390;2023-07-31T07:15:24;16.39;89.11
47757;SHT35;22147;52.388;13.390;2023-07-31T07:17:54;16.32;89.14
47757;SHT35;22147;52.388;13.390;2023-07-31T07:20:25;16.33;89.33
47757;SHT35;22147;52.388;13.390;2023-07-31T07:22:55;16.36;89.57
47757;SHT35;22147;52.388;13.390;2023-07-31T07:25:25;16.46;89.67
47757;SHT35;22147;52.388;13.390;2023-07-31T07:27:55;16.55;89.45
47757;SHT35;22147;52.388;13.390;2023-07-31T07:30:25;16.57;89.06
47757;SHT35;22147;52.388;13.390;2023-07-31T07:32:54;16.51;88.95
47757;SHT35;22147;52.388;13.390;2023-07-31T07:35:22;16.70;89.01
47757;SHT35;22147;52.388;13.390;2023-07-31T07:37:51;16.73;89.03
47757;SHT35;22147;52.388;13.390;2023-07-31T07:40:20;16.70;88.97
47757;SHT35;22147;52.388;13.390;2023-07-31T07:42:51;16.70;88.87
47757;SHT35;22147;52.388;13.390;2023-07-31T07:45:19;16.73;89.00
47757;SHT35;22147;52.388;13.390;2023-07-31T07:47:47;16.95;88.74
47757;SHT35;22147;52.388;13.390;2023-07-31T07:50:16;17.05;88.26
47757;SHT35;22147;52.388;13.390;2023-07-31T07:52:44;17.11;88.67
47757;SHT35;22147;52.388;13.390;2023-07-31T07:55:13;17.18;88.59
47757;SHT35;22147;52.388;13.390;2023-07-31T07:57:41;17.34;87.97
47757;SHT35;22147;52.388;13.390;2023-07-31T08:00:13;17.31;87.44
47757;SHT35;22147;52.388;13.390;2023-07-31T08:02:45;17.27;87.78
47757;SHT35;22147;52.388;13.390;2023-07-31T08:05:15;17.21;87.82
47757;SHT35;22147;52.388;13.390;2023-07-31T08:07:47;17.15;87.93
47757;SHT35;22147;52.388;13.390;2023-07-31T08:10:17;16.91;88.12
47757;SHT35;22147;52.388;13.390;2023-07-31T08:12:48;17.00;88.99
47757;SHT35;22147;52.388;13.390;2023-07-31T08:15:18;17.07;88.72
47757;SHT35;22147;52.388;13.390;2023-07-31T08:17:48;17.04;88.94
47757;SHT35;22147;52.388;13.390;2023-07-31T08:20:18;17.12;89.14
47757;SHT35;22147;52.388;13.390;2023-07-31T08:22:49;17.15;89.02
47757;SHT35;22147;52.388;13.390;2023-07-31T08:25:19;17.24;88.94
47757;SHT35;22147;52.388;13.390;2023-07-31T08:27:49;17.45;88.72
47757;SHT35;22147;52.388;13.390;2023-07-31T08:30:23;17.55;88.33
47757;SHT35;22147;52.388;13.390;2023-07-31T08:32:53;17.60;87.98
47757;SHT35;22147;52.388;13.390;2023-07-31T08:35:26;17.66;88.36
47757;SHT35;22147;52.388;13.390;2023-07-31T08:37:59;17.74;87.88
47757;SHT35;22147;52.388;13.390;2023-07-31T08:40:30;17.83;87.50
47757;SHT35;22147;52.388;13.390;2023-07-31T08:43:00;17.80;87.48
47757;SHT35;22147;52.388;13.390;2023-07-31T08:45:32;17.67;87.91
47757;SHT35;22147;52.388;13.390;2023-07-31T08:48:04;17.70;87.27
47757;SHT35;22147;52.388;13.390;2023-07-31T08:50:35;17.69;87.91
47757;SHT35;22147;52.388;13.390;2023-07-31T08:53:06;17.76;88.02
47757;SHT35;22147;52.388;13.390;2023-07-31T08:55:38;17.81;88.16
47757;SHT35;22147;52.388;13.390;2023-07-31T08:58:12;17.88;87.69
47757;SHT35;22147;52.388;13.390;2023-07-31T09:00:46;17.90;86.79
47757;SHT35;22147;52.388;13.390;2023-07-31T09:03:24;17.93;86.73
47757;SHT35;22147;52.388;13.390;2023-07-31T09:05:57;18.06;86.19
47757;SHT35;22147;52.388;13.390;2023-07-31T09:08:31;18.10;86.95
47757;SHT35;22147;52.388;13.390;2023-07-31T09:11:04;18.18;86.25
47757;SHT35;22147;52.388;13.390;2023-07-31T09:13:35;18.28;86.16
47757;SHT35;22147;52.388;13.390;2023-07-31T09:16:09;18.48;85.28
47757;SHT35;22147;52.388;13.390;2023-07-31T09:18:57;18.45;83.79
47757;SHT35;22147;52.388;13.390;2023-07-31T09:21:28;18.38;84.30
47757;SHT35;22147;52.388;13.390;2023-07-31T09:23:58;18.34;84.26
47757;SHT35;22147;52.388;13.390;2023-07-31T09:26:37;18.21;83.70
47757;SHT35;22147;52.388;13.390;2023-07-31T09:29:19;17.87;84.37
47757;SHT35;22147;52.388;13.390;2023-07-31T09:31:50;17.83;85.12
47757;SHT35;22147;52.388;13.390;2023-07-31T09:34:37;17.98;85.49
47757;SHT35;22147;52.388;13.390;2023-07-31T09:37:11;18.06;85.19
47757;SHT35;22147;52.388;13.390;2023-07-31T09:39:49;18.11;85.41
47757;SHT35;22147;52.388;13.390;2023-07-31T09:42:26;18.29;84.72
47757;SHT35;22147;52.388;13.390;2023-07-31T09:45:08;18.25;84.86
47757;SHT35;22147;52.388;13.390;2023-07-31T09:47:37;18.36;84.21
47757;SHT35;22147;52.388;13.390;2023-07-31T09:50:10;18.38;84.16
47757;SHT35;22147;52.388;13.390;2023-07-31T09:52:39;18.42;84.67
47757;SHT35;22147;52.388;13.390;2023-07-31T09:55:10;18.56;84.55
47757;SHT35;22147;52.388;13.390;2023-07-31T09:57:46;18.63;84.21
47757;SHT35;22147;52.388;13.390;2023-07-31T10:00:19;18.52;84.05
47757;SHT35;22147;52.388;13.390;2023-07-31T10:02:52;18.42;84.53
47757;SHT35;22147;52.388;13.390;2023-07-31T10:05:22;18.49;84.80
47757;SHT35;22147;52.388;13.390;2023-07-31T10:07:55;18.25;84.81
47757;SHT35;22147;52.388;13.390;2023-07-31T10:10:27;18.28;85.60
47757;SHT35;22147;52.388;13.390;2023-07-31T10:13:00;18.41;85.18
47757;SHT35;22147;52.388;13.390;2023-07-31T10:15:32;18.48;85.61
47757;SHT35;22147;52.388;13.390;2023-07-31T10:18:06;18.41;85.34
47757;SHT35;22147;52.388;13.390;2023-07-31T10:20:36;18.45;85.89
47757;SHT35;22147;52.388;13.390;2023-07-31T10:23:08;18.38;86.21
47757;SHT35;22147;52.388;13.390;2023-07-31T10:25:39;18.45;86.57
47757;SHT35;22147;52.388;13.390;2023-07-31T10:28:11;18.42;86.23
47757;SHT35;22147;52.388;13.390;2023-07-31T10:30:42;18.56;86.49
47757;SHT35;22147;52.388;13.390;2023-07-31T10:33:13;18.84;86.32
47757;SHT35;22147;52.388;13.390;2023-07-31T10:35:43;19.13;86.41
47757;SHT35;22147;52.388;13.390;2023-07-31T10:38:13;19.28;84.80
47757;SHT35;22147;52.388;13.390;2023-07-31T10:40:43;19.63;85.20
47757;SHT35;22147;52.388;13.390;2023-07-31T10:43:25;19.98;83.52
47757;SHT35;22147;52.388;13.390;2023-07-31T10:45:57;20.26;83.04
47757;SHT35;22147;52.388;13.390;2023-07-31T10:48:34;20.43;82.22
47757;SHT35;22147;52.388;13.390;2023-07-31T10:51:12;20.54;80.74
47757;SHT35;22147;52.388;13.390;2023-07-31T10:53:40;20.43;80.24
47757;SHT35;22147;52.388;13.390;2023-07-31T10:56:11;20.61;79.64
47757;SHT35;22147;52.388;13.390;2023-07-31T10:58:45;21.15;78.71
47757;SHT35;22147;52.388;13.390;2023-07-31T11:01:18;21.43;77.85
47757;SHT35;22147;52.388;13.390;2023-07-31T11:03:50;21.81;74.78
47757;SHT35;22147;52.388;13.390;2023-07-31T11:06:22;21.92;76.84
47757;SHT35;22147;52.388;13.390;2023-07-31T11:08:52;22.08;74.20
47757;SHT35;22147;52.388;13.390;2023-07-31T11:11:21;22.01;74.09
47757;SHT35;22147;52.388;13.390;2023-07-31T11:13:53;22.14;73.69
47757;SHT35;22147;52.388;13.390;2023-07-31T11:16:24;22.22;69.63
47757;SHT35;22147;52.388;13.390;2023-07-31T11:18:54;22.31;67.64
47757;SHT35;22147;52.388;13.390;2023-07-31T11:21:25;22.22;69.44
47757;SHT35;22147;52.388;13.390;2023-07-31T11:23:58;22.12;66.34
47757;SHT35;22147;52.388;13.390;2023-07-31T11:26:27;22.02;66.69
47757;SHT35;22147;52.388;13.390;2023-07-31T11:28:57;21.87;68.23
47757;SHT35;22147;52.388;13.390;2023-07-31T11:31:27;21.90;70.39
47757;SHT35;22147;52.388;13.390;2023-07-31T11:34:07;21.85;68.69
47757;SHT35;22147;52.388;13.390;2023-07-31T11:36:37;21.92;69.10
47757;SHT35;22147;52.388;13.390;2023-07-31T11:39:10;21.98;68.97
47757;SHT35;22147;52.388;13.390;2023-07-31T11:41:41;22.02;67.59
47757;SHT35;22147;52.388;13.390;2023-07-31T11:44:12;21.67;67.41
47757;SHT35;22147;52.388;13.390;2023-07-31T11:46:57;21.43;68.83
47757;SHT35;22147;52.388;13.390;2023-07-31T11:49:29;21.42;70.33
47757;SHT35;22147;52.388;13.390;2023-07-31T11:52:00;21.49;69.69
47757;SHT35;22147;52.388;13.390;2023-07-31T11:54:30;21.50;70.40
47757;SHT35;22147;52.388;13.390;2023-07-31T11:57:01;21.39;70.03
47757;SHT35;22147;52.388;13.390;2023-07-31T11:59:30;21.27;69.94
47757;SHT35;22147;52.388;13.390;2023-07-31T12:01:59;21.35;70.35
47757;SHT35;22147;52.388;13.390;2023-07-31T12:04:29;21.30;69.06
47757;SHT35;22147;52.388;13.390;2023-07-31T12:07:00;21.40;69.32
47757;SHT35;22147;52.388;13.390;2023-07-31T12:09:29;21.54;68.39
47757;SHT35;22147;52.388;13.390;2023-07-31T12:11:57;21.49;70.23
47757;SHT35;22147;52.388;13.390;2023-07-31T12:14:27;21.57;69.89
47757;SHT35;22147;52.388;13.390;2023-07-31T12:17:04;21.42;68.96
47757;SHT35;22147;52.388;13.390;2023-07-31T12:19:34;21.22;69.33
47757;SHT35;22147;52.388;13.390;2023-07-31T12:22:02;21.08;70.54
47757;SHT35;22147;52.388;13.390;2023-07-31T12:24:44;21.08;70.97
47757;SHT35;22147;52.388;13.390;2023-07-31T12:27:14;21.06;68.96
47757;SHT35;22147;52.388;13.390;2023-07-31T12:29:43;21.08;70.26
47757;SHT35;22147;52.388;13.390;2023-07-31T12:32:25;21.05;71.08
47757;SHT35;22147;52.388;13.390;2023-07-31T12:34:52;21.18;69.92
47757;SHT35;22147;52.388;13.390;2023-07-31T12:37:22;21.15;70.46
47757;SHT35;22147;52.388;13.390;2023-07-31T12:39:52;21.26;69.28
47757;SHT35;22147;52.388;13.390;2023-07-31T12:42:20;21.51;69.01
47757;SHT35;22147;52.388;13.390;2023-07-31T12:44:49;21.49;68.86
47757;SHT35;22147;52.388;13.390;2023-07-31T12:47:18;21.57;67.49
47757;SHT35;22147;52.388;13.390;2023-07-31T12:49:47;21.78;66.47
47757;SHT35;22147;52.388;13.390;2023-07-31T12:52:16;21.74;67.22
47757;SHT35;22147;52.388;13.390;2023-07-31T12:54:44;21.80;68.23
47757;SHT35;22147;52.388;13.390;2023-07-31T12:57:13;22.08;67.61
47757;SHT35;22147;52.388;13.390;2023-07-31T12:59:42;22.26;66.86
47757;SHT35;22147;52.388;13.390;2023-07-31T13:02:12;22.05;66.83
47757;SHT35;22147;52.388;13.390;2023-07-31T13:04:41;21.85;68.64
47757;SHT35;22147;52.388;13.390;2023-07-31T13:07:11;21.85;67.17
47757;SHT35;22147;52.388;13.390;2023-07-31T13:09:40;21.75;67.89
47757;SHT35;22147;52.388;13.390;2023-07-31T13:12:08;21.95;67.11
47757;SHT35;22147;52.388;13.390;2023-07-31T13:14:38;21.94;66.97
47757;SHT35;22147;52.388;13.390;2023-07-31T13:17:08;22.24;69.13
47757;SHT35;22147;52.388;13.390;2023-07-31T13:19:38;22.49;65.33
47757;SHT35;22147;52.388;13.390;2023-07-31T13:22:08;22.48;66.41
47757;SHT35;22147;52.388;13.390;2023-07-31T13:24:38;22.29;66.38
47757;SHT35;22147;52.388;13.390;2023-07-31T13:27:08;22.17;67.75
47757;SHT35;22147;52.388;13.390;2023-07-31T13:29:37;22.25;68.30
47757;SHT35;22147;52.388;13.390;2023-07-31T13:32:07;22.14;67.44
47757;SHT35;22147;52.388;13.390;2023-07-31T13:34:37;22.08;67.81
47757;SHT35;22147;52.388;13.390;2023-07-31T13:37:08;22.29;67.05
47757;SHT35;22147;52.388;13.390;2023-07-31T13:39:38;22.49;66.52
47757;SHT35;22147;52.388;13.390;2023-07-31T13:42:09;22.65;66.13
47757;SHT35;22147;52.388;13.390;2023-07-31T13:44:44;22.65;67.02
47757;SHT35;22147;52.388;13.390;2023-07-31T13:47:12;22.72;65.76
47757;SHT35;22147;52.388;13.390;2023-07-31T13:49:42;22.84;65.44
47757;SHT35;22147;52.388;13.390;2023-07-31T13:52:12;22.73;65.29
47757;SHT35;22147;52.388;13.390;2023-07-31T13:54:42;22.80;66.45
47757;SHT35;22147;52.388;13.390;2023-07-31T13:57:12;22.87;65.42
47757;SHT35;22147;52.388;13.390;2023-07-31T13:59:42;22.96;65.85
47757;SHT35;22147;52.388;13.390;2023-07-31T14:02:12;23.16;65.43
47757;SHT35;22147;52.388;13.390;2023-07-31T14:04:43;23.01;66.97
47757;SHT35;22147;52.388;13.390;2023-07-31T14:07:13;22.89;65.99
47757;SHT35;22147;52.388;13.390;2023-07-31T14:09:43;22.91;65.55
47757;SHT35;22147;52.388;13.390;2023-07-31T14:12:13;22.75;65.96
47757;SHT35;22147;52.388;13.390;2023-07-31T14:15:00;22.59;64.96
47757;SHT35;22147;52.388;13.390;2023-07-31T14:17:30;22.50;66.30
47757;SHT35;22147;52.388;13.390;2023-07-31T14:20:03;22.29;65.44
47757;SHT35;22147;52.388;13.390;2023-07-31T14:22:34;22.25;66.82
47757;SHT35;22147;52.388;13.390;2023-07-31T14:25:02;22.25;68.00
47757;SHT35;22147;52.388;13.390;2023-07-31T14:27:32;22.11;67.62
47757;SHT35;22147;52.388;13.390;2023-07-31T14:30:04;22.08;67.24
47757;SHT35;22147;52.388;13.390;2023-07-31T14:32:33;22.17;68.23
47757;SHT35;22147;52.388;13.390;2023-07-31T14:35:04;22.32;68.15
47757;SHT35;22147;52.388;13.390;2023-07-31T14:37:43;22.31;66.86
47757;SHT35;22147;52.388;13.390;2023-07-31T14:43:15;22.45;68.02
47757;SHT35;22147;52.388;13.390;2023-07-31T14:45:44;22.46;66.04
47757;SHT35;22147;52.388;13.390;2023-07-31T14:48:16;22.55;64.98
47757;SHT35;22147;52.388;13.390;2023-07-31T14:50:44;22.49;66.63
47757;SHT35;22147;52.388;13.390;2023-07-31T14:53:13;22.31;66.79
47757;SHT35;22147;52.388;13.390;2023-07-31T14:55:41;22.33;67.01
47757;SHT35;22147;52.388;13.390;2023-07-31T14:58:09;22.42;66.57
47757;SHT35;22147;52.388;13.390;2023-07-31T15:00:42;22.35;66.13
47757;SHT35;22147;52.388;13.390;2023-07-31T15:03:12;22.26;67.21
47757;SHT35;22147;52.388;13.390;2023-07-31T15:05:42;22.08;66.93
47757;SHT35;22147;52.388;13.390;2023-07-31T15:08:12;21.91;68.44
47757;SHT35;22147;52.388;13.390;2023-07-31T15:10:42;21.71;66.94
47757;SHT35;22147;52.388;13.390;2023-07-31T15:13:12;21.59;67.46
47757;SHT35;22147;52.388;13.390;2023-07-31T15:15:40;21.60;65.78
47757;SHT35;22147;52.388;13.390;2023-07-31T15:18:09;21.50;66.49
47757;SHT35;22147;52.388;13.390;2023-07-31T15:20:37;21.51;68.70
47757;SHT35;22147;52.388;13.390;2023-07-31T15:23:06;21.60;70.24
47757;SHT35;22147;52.388;13.390;2023-07-31T15:25:34;21.73;69.86
47757;SHT35;22147;52.388;13.390;2023-07-31T15:28:02;21.67;70.53
47757;SHT35;22147;52.388;13.390;2023-07-31T15:30:31;21.66;70.26
47757;SHT35;22147;52.388;13.390;2023-07-31T15:33:01;21.57;70.73
47757;SHT35;22147;52.388;13.390;2023-07-31T15:35:31;21.51;70.78
47757;SHT35;22147;52.388;13.390;2023-07-31T15:37:59;21.51;70.81
47757;SHT35;22147;52.388;13.390;2023-07-31T15:40:28;21.64;70.08
47757;SHT35;22147;52.388;13.390;2023-07-31T15:42:56;21.78;70.49
47757;SHT35;22147;52.388;13.390;2023-07-31T15:45:24;21.78;70.77